Terminal Aerodrome Forecast
Issued by NWS

Home | Current Version | Previous Version | Graphics & Text | Print | Product List | Glossary On
Versions: 1 2 3 4 5 6 7 8 9 10 11 12 13 14 15 16
000
FTUS43 KMPX 240520
TAFRWF
TAF
KRWF 240520Z 2406/2506 19012KT P6SM SCT250
     FM241400 28012G19KT P6SM VCSH OVC080
      TEMPO 2415/2418 P6SM -SHRA
     FM241800 31018G25KT P6SM SCT050
     FM250000 30012KT P6SM SKC=

USA.gov is the U.S. government's official web portal to all federal, state and local government web resources and services.